Accueil
METAR-TAF:

METAR-TAF

Aéroports :

Novare, Italie

Base aérienne Cameri

latitude: 45-31N, longitude: 008-40E, altitude: 178 m

Observation

Le bulletin a été fait il y a 6 heures et 56 minutes, à 17:55 UTC
Vent 12 kt de nord, variant entre nord/nord-ouest et nord-est
Température 28°C
Humidité 27%
Pression 1006 hPa
Visibilité 10 km ou plus
pas de nuages en-dessous de 1500 mètres et pas de cumulonimbus.

METAR: LIMN 261755Z 01012KT 340V040 CAVOK 28/07 Q1006 RMK SCT SCT200 VIS MIN 9999 BLU

Heure: 02:51 (00:51 UTC)

Prévision

Le bulletin a été fait il y a 7 heures et 51 minutes, à 17:00 UTC
Prévision valable du 26 à 18 UTC au 27 à 03 UTC
Vent 10 kt de nord/nord-est
Visibilité 10 km ou plus
pas de nuages en-dessous de 1500 mètres et pas de cumulonimbus.

TAF: LIMN 261700Z 2618/2703 02010KT CAVOK

Observations et prévisions météorologiques de plus de 4000 aéroports (messages METAR et TAF).

Les stations disponibles sont représentées par des disques jaunes et rouges sur la carte.

Passer la souris dessus pour voir le nom de la station.

Cliquer dessus pour voir les observations et prévisions météorologiques.

Pour changer de carte: cliquez sur les boutons verts avec une croix noire pour zoomer, sur le bouton vert avec un tiret pour effectuer un zoom arrière, ou sur les flèches vertes pour les cartes adjacentes.


METAR-TAF: